createdAt,value
2018-11-28T00:02:08.626Z,102445.02
2018-11-28T00:05:13.422Z,102447.36
2018-11-28T00:08:17.743Z,102441.91
2018-11-28T00:11:22.012Z,102435.69
2018-11-28T00:14:26.288Z,102437.50
2018-11-28T00:17:30.567Z,102440.31
2018-11-28T00:20:34.891Z,102432.78
2018-11-28T00:23:39.189Z,102426.34
2018-11-28T00:26:43.495Z,102434.13
2018-11-28T00:29:47.750Z,102432.20
2018-11-28T00:32:52.015Z,102448.20
2018-11-28T00:35:56.277Z,102446.77
2018-11-28T00:39:00.567Z,102453.34
2018-11-28T00:42:04.959Z,102450.83
2018-11-28T00:45:15.869Z,102451.09
2018-11-28T00:48:20.191Z,102454.86
2018-11-28T00:51:24.460Z,102443.17
2018-11-28T00:54:28.740Z,102446.72
2018-11-28T00:57:32.989Z,102456.36
2018-11-28T01:00:37.302Z,102449.05
2018-11-28T01:03:41.572Z,102448.83
2018-11-28T01:06:45.848Z,102453.58
2018-11-28T01:09:50.122Z,102462.83
2018-11-28T01:12:55.031Z,102451.16
2018-11-28T01:15:59.296Z,102448.73
2018-11-28T01:19:03.576Z,102447.04
2018-11-28T01:22:07.847Z,102447.80
2018-11-28T01:25:13.607Z,102436.98
2018-11-28T01:28:17.940Z,102445.14
2018-11-28T01:31:22.233Z,102441.74
2018-11-28T01:34:26.556Z,102440.30
2018-11-28T01:37:30.886Z,102440.55
2018-11-28T01:40:35.266Z,102440.92
2018-11-28T01:43:39.705Z,102437.51
2018-11-28T01:46:44.057Z,102437.38
2018-11-28T01:49:48.392Z,102435.93
2018-11-28T01:52:52.788Z,102431.69
2018-11-28T01:55:57.234Z,102423.16
2018-11-28T01:59:01.916Z,102420.61
2018-11-28T02:02:09.110Z,102418.53
2018-11-28T02:05:15.247Z,102416.84
2018-11-28T02:08:20.365Z,102425.35
2018-11-28T02:11:24.819Z,102430.95
2018-11-28T02:14:30.404Z,102427.53
2018-11-28T02:17:35.934Z,102428.16
2018-11-28T02:20:41.228Z,102427.30
2018-11-28T02:23:48.366Z,102430.96
2018-11-28T02:26:53.214Z,102437.86
2018-11-28T02:29:57.882Z,102443.46
2018-11-28T02:33:04.326Z,102448.33
2018-11-28T02:36:09.036Z,102457.34
2018-11-28T02:39:13.660Z,102467.92
2018-11-28T02:42:18.308Z,102469.27
2018-11-28T02:45:23.683Z,102479.34
2018-11-28T02:48:29.411Z,102474.48
2018-11-28T02:51:34.936Z,102470.22
2018-11-28T02:54:39.555Z,102474.27
2018-11-28T02:57:45.707Z,102473.65
2018-11-28T03:00:50.152Z,102468.17
2018-11-28T03:03:55.254Z,102460.52
2018-11-28T03:07:01.458Z,102452.36
2018-11-28T03:10:10.041Z,102456.60
2018-11-28T03:13:14.874Z,102453.45
2018-11-28T03:16:20.344Z,102445.77
2018-11-28T03:19:26.384Z,102449.31
2018-11-28T03:22:31.045Z,102442.98
2018-11-28T03:25:36.495Z,102443.11
2018-11-28T03:28:41.642Z,102438.12
2018-11-28T03:31:46.168Z,102434.36
2018-11-28T03:34:50.657Z,102431.81
2018-11-28T03:37:56.149Z,102417.55
2018-11-28T03:41:01.406Z,102431.05
2018-11-28T03:44:07.013Z,102422.33
2018-11-28T03:47:11.749Z,102425.25
2018-11-28T03:50:17.174Z,102423.52
2018-11-28T03:53:22.168Z,102417.46
2018-11-28T03:56:28.566Z,102410.39
2018-11-28T03:59:32.972Z,102412.95
2018-11-28T04:02:39.254Z,102405.77
2018-11-28T04:05:43.697Z,102401.88
2018-11-28T04:08:48.526Z,102404.68
2018-11-28T04:11:52.934Z,102404.45
2018-11-28T04:14:57.336Z,102408.67
2018-11-28T04:18:01.744Z,102406.75
2018-11-28T04:21:06.122Z,102402.72
2018-11-28T04:24:10.805Z,102413.42
2018-11-28T04:27:15.149Z,102406.37
2018-11-28T04:30:22.138Z,102418.18
2018-11-28T04:33:26.565Z,102421.80
2018-11-28T04:36:31.907Z,102407.21
2018-11-28T04:39:37.978Z,102410.99
2018-11-28T04:42:42.496Z,102409.03
2018-11-28T04:45:46.915Z,102403.92
2018-11-28T04:48:51.305Z,102404.64
2018-11-28T04:51:55.791Z,102406.58
2018-11-28T04:55:00.181Z,102403.19
2018-11-28T04:58:04.949Z,102407.17
2018-11-28T05:01:09.493Z,102411.93
2018-11-28T05:04:14.649Z,102400.50
2018-11-28T05:28:42.391Z,102397.80
